sensor_id;sensor_type;location;lat;lon;timestamp;P1;durP1;ratioP1;P2;durP2;ratioP2
70270;SDS011;57680;54.292;18.598;2023-08-01T00:01:42;9.57;;;4.00;;
70270;SDS011;57680;54.292;18.598;2023-08-01T00:04:08;8.80;;;4.13;;
70270;SDS011;57680;54.292;18.598;2023-08-01T00:06:33;11.33;;;4.03;;
70270;SDS011;57680;54.292;18.598;2023-08-01T00:08:59;9.70;;;4.27;;
70270;SDS011;57680;54.292;18.598;2023-08-01T00:11:24;12.20;;;3.80;;
70270;SDS011;57680;54.292;18.598;2023-08-01T00:13:49;11.27;;;4.07;;
70270;SDS011;57680;54.292;18.598;2023-08-01T00:16:15;10.70;;;4.13;;
70270;SDS011;57680;54.292;18.598;2023-08-01T00:18:40;9.87;;;3.60;;
70270;SDS011;57680;54.292;18.598;2023-08-01T00:21:05;8.57;;;4.00;;
70270;SDS011;57680;54.292;18.598;2023-08-01T00:23:31;7.33;;;3.67;;
70270;SDS011;57680;54.292;18.598;2023-08-01T00:25:56;8.05;;;3.97;;
70270;SDS011;57680;54.292;18.598;2023-08-01T00:28:22;9.87;;;3.97;;
70270;SDS011;57680;54.292;18.598;2023-08-01T00:30:47;8.47;;;3.53;;
70270;SDS011;57680;54.292;18.598;2023-08-01T00:33:13;8.07;;;3.83;;
70270;SDS011;57680;54.292;18.598;2023-08-01T00:35:38;9.70;;;3.80;;
70270;SDS011;57680;54.292;18.598;2023-08-01T00:38:04;8.10;;;3.80;;
70270;SDS011;57680;54.292;18.598;2023-08-01T00:40:30;8.77;;;3.50;;
70270;SDS011;57680;54.292;18.598;2023-08-01T00:42:55;8.57;;;3.50;;
70270;SDS011;57680;54.292;18.598;2023-08-01T00:45:21;9.73;;;3.83;;
70270;SDS011;57680;54.292;18.598;2023-08-01T00:47:46;9.70;;;4.30;;
70270;SDS011;57680;54.292;18.598;2023-08-01T00:50:11;8.68;;;3.78;;
70270;SDS011;57680;54.292;18.598;2023-08-01T00:52:37;7.17;;;3.70;;
70270;SDS011;57680;54.292;18.598;2023-08-01T00:55:02;7.73;;;3.73;;
70270;SDS011;57680;54.292;18.598;2023-08-01T00:57:28;8.52;;;3.50;;
70270;SDS011;57680;54.292;18.598;2023-08-01T00:59:54;8.80;;;3.33;;
70270;SDS011;57680;54.292;18.598;2023-08-01T01:02:20;8.45;;;3.35;;
70270;SDS011;57680;54.292;18.598;2023-08-01T01:04:46;7.47;;;3.10;;
70270;SDS011;57680;54.292;18.598;2023-08-01T01:07:11;6.87;;;3.00;;
70270;SDS011;57680;54.292;18.598;2023-08-01T01:09:37;7.78;;;2.83;;
70270;SDS011;57680;54.292;18.598;2023-08-01T01:12:02;7.77;;;3.13;;
70270;SDS011;57680;54.292;18.598;2023-08-01T01:14:28;7.70;;;2.93;;
70270;SDS011;57680;54.292;18.598;2023-08-01T01:16:54;6.07;;;2.90;;
70270;SDS011;57680;54.292;18.598;2023-08-01T01:19:19;6.72;;;3.00;;
70270;SDS011;57680;54.292;18.598;2023-08-01T01:21:45;7.07;;;2.80;;
70270;SDS011;57680;54.292;18.598;2023-08-01T01:24:12;8.02;;;2.80;;
70270;SDS011;57680;54.292;18.598;2023-08-01T01:26:40;6.30;;;2.77;;
70270;SDS011;57680;54.292;18.598;2023-08-01T01:29:06;7.70;;;2.90;;
70270;SDS011;57680;54.292;18.598;2023-08-01T01:31:32;7.70;;;2.75;;
70270;SDS011;57680;54.292;18.598;2023-08-01T01:33:58;10.13;;;3.33;;
70270;SDS011;57680;54.292;18.598;2023-08-01T01:36:24;8.00;;;2.97;;
70270;SDS011;57680;54.292;18.598;2023-08-01T01:38:50;7.00;;;3.20;;
70270;SDS011;57680;54.292;18.598;2023-08-01T01:41:15;8.03;;;3.30;;
70270;SDS011;57680;54.292;18.598;2023-08-01T01:43:40;8.33;;;3.20;;
70270;SDS011;57680;54.292;18.598;2023-08-01T01:46:06;7.40;;;3.27;;
70270;SDS011;57680;54.292;18.598;2023-08-01T01:48:31;8.63;;;3.07;;
70270;SDS011;57680;54.292;18.598;2023-08-01T01:50:56;9.57;;;3.67;;
70270;SDS011;57680;54.292;18.598;2023-08-01T01:53:22;6.77;;;3.10;;
70270;SDS011;57680;54.292;18.598;2023-08-01T01:55:47;8.73;;;3.13;;
70270;SDS011;57680;54.292;18.598;2023-08-01T01:58:13;7.37;;;3.07;;
70270;SDS011;57680;54.292;18.598;2023-08-01T02:00:38;7.87;;;3.20;;
70270;SDS011;57680;54.292;18.598;2023-08-01T02:03:03;7.17;;;3.20;;
70270;SDS011;57680;54.292;18.598;2023-08-01T02:05:29;6.95;;;3.30;;
70270;SDS011;57680;54.292;18.598;2023-08-01T02:07:55;9.43;;;3.70;;
70270;SDS011;57680;54.292;18.598;2023-08-01T02:10:20;9.60;;;3.20;;
70270;SDS011;57680;54.292;18.598;2023-08-01T02:12:45;7.10;;;3.10;;
70270;SDS011;57680;54.292;18.598;2023-08-01T02:15:11;8.00;;;3.30;;
70270;SDS011;57680;54.292;18.598;2023-08-01T02:17:36;7.70;;;3.27;;
70270;SDS011;57680;54.292;18.598;2023-08-01T02:20:02;9.13;;;3.93;;
70270;SDS011;57680;54.292;18.598;2023-08-01T02:22:27;8.68;;;3.42;;
70270;SDS011;57680;54.292;18.598;2023-08-01T02:24:52;7.37;;;3.60;;
70270;SDS011;57680;54.292;18.598;2023-08-01T02:27:18;7.60;;;3.20;;
70270;SDS011;57680;54.292;18.598;2023-08-01T02:29:43;7.13;;;3.33;;
70270;SDS011;57680;54.292;18.598;2023-08-01T02:32:08;8.37;;;3.70;;
70270;SDS011;57680;54.292;18.598;2023-08-01T02:34:34;8.87;;;4.07;;
70270;SDS011;57680;54.292;18.598;2023-08-01T02:36:59;7.07;;;3.20;;
70270;SDS011;57680;54.292;18.598;2023-08-01T02:39:25;8.50;;;3.90;;
70270;SDS011;57680;54.292;18.598;2023-08-01T02:41:50;11.23;;;3.80;;
70270;SDS011;57680;54.292;18.598;2023-08-01T02:44:15;10.73;;;3.23;;
70270;SDS011;57680;54.292;18.598;2023-08-01T02:46:41;8.23;;;3.33;;
70270;SDS011;57680;54.292;18.598;2023-08-01T02:49:06;8.50;;;3.20;;
70270;SDS011;57680;54.292;18.598;2023-08-01T02:51:31;7.72;;;3.45;;
70270;SDS011;57680;54.292;18.598;2023-08-01T02:53:57;8.70;;;3.97;;
70270;SDS011;57680;54.292;18.598;2023-08-01T02:56:22;8.90;;;3.27;;
70270;SDS011;57680;54.292;18.598;2023-08-01T02:58:47;8.70;;;3.30;;
70270;SDS011;57680;54.292;18.598;2023-08-01T03:01:13;8.83;;;3.50;;
70270;SDS011;57680;54.292;18.598;2023-08-01T03:03:38;7.97;;;3.57;;
70270;SDS011;57680;54.292;18.598;2023-08-01T03:06:04;8.20;;;3.67;;
70270;SDS011;57680;54.292;18.598;2023-08-01T03:08:29;7.73;;;3.27;;
70270;SDS011;57680;54.292;18.598;2023-08-01T03:10:55;8.17;;;3.10;;
70270;SDS011;57680;54.292;18.598;2023-08-01T03:13:20;8.43;;;3.22;;
70270;SDS011;57680;54.292;18.598;2023-08-01T03:15:46;8.60;;;3.20;;
70270;SDS011;57680;54.292;18.598;2023-08-01T03:18:11;8.27;;;3.43;;
70270;SDS011;57680;54.292;18.598;2023-08-01T03:20:37;10.00;;;3.80;;
70270;SDS011;57680;54.292;18.598;2023-08-01T03:23:02;8.77;;;3.70;;
70270;SDS011;57680;54.292;18.598;2023-08-01T03:25:27;7.87;;;3.53;;
70270;SDS011;57680;54.292;18.598;2023-08-01T03:27:53;7.67;;;3.40;;
70270;SDS011;57680;54.292;18.598;2023-08-01T03:30:18;7.50;;;3.57;;
70270;SDS011;57680;54.292;18.598;2023-08-01T03:32:43;7.78;;;3.60;;
70270;SDS011;57680;54.292;18.598;2023-08-01T03:35:09;7.80;;;3.57;;
70270;SDS011;57680;54.292;18.598;2023-08-01T03:37:34;8.30;;;3.40;;
70270;SDS011;57680;54.292;18.598;2023-08-01T03:39:59;7.90;;;3.80;;
70270;SDS011;57680;54.292;18.598;2023-08-01T03:42:25;9.30;;;3.60;;
70270;SDS011;57680;54.292;18.598;2023-08-01T03:44:50;8.37;;;3.57;;
70270;SDS011;57680;54.292;18.598;2023-08-01T03:47:15;14.50;;;4.90;;
70270;SDS011;57680;54.292;18.598;2023-08-01T03:49:41;11.67;;;3.63;;
70270;SDS011;57680;54.292;18.598;2023-08-01T03:52:06;8.77;;;3.30;;
70270;SDS011;57680;54.292;18.598;2023-08-01T03:54:32;7.80;;;3.40;;
70270;SDS011;57680;54.292;18.598;2023-08-01T03:56:57;8.90;;;3.23;;
70270;SDS011;57680;54.292;18.598;2023-08-01T03:59:23;9.63;;;4.13;;
70270;SDS011;57680;54.292;18.598;2023-08-01T04:01:49;7.63;;;3.35;;
70270;SDS011;57680;54.292;18.598;2023-08-01T04:04:14;7.77;;;3.20;;
70270;SDS011;57680;54.292;18.598;2023-08-01T04:06:39;9.07;;;3.50;;
70270;SDS011;57680;54.292;18.598;2023-08-01T04:09:04;8.90;;;3.97;;
70270;SDS011;57680;54.292;18.598;2023-08-01T04:11:30;7.93;;;3.47;;
70270;SDS011;57680;54.292;18.598;2023-08-01T04:13:55;7.20;;;3.60;;
70270;SDS011;57680;54.292;18.598;2023-08-01T04:16:21;8.37;;;3.40;;
70270;SDS011;57680;54.292;18.598;2023-08-01T04:18:46;8.25;;;3.72;;
70270;SDS011;57680;54.292;18.598;2023-08-01T04:21:13;7.33;;;3.47;;
70270;SDS011;57680;54.292;18.598;2023-08-01T04:23:39;6.53;;;3.53;;
70270;SDS011;57680;54.292;18.598;2023-08-01T04:26:05;10.30;;;3.80;;
70270;SDS011;57680;54.292;18.598;2023-08-01T04:28:30;8.70;;;4.20;;
70270;SDS011;57680;54.292;18.598;2023-08-01T04:30:55;9.53;;;3.90;;
70270;SDS011;57680;54.292;18.598;2023-08-01T04:33:20;8.10;;;3.70;;
70270;SDS011;57680;54.292;18.598;2023-08-01T04:35:46;9.07;;;3.83;;
70270;SDS011;57680;54.292;18.598;2023-08-01T04:38:11;7.97;;;3.58;;
70270;SDS011;57680;54.292;18.598;2023-08-01T04:40:36;9.77;;;3.80;;
70270;SDS011;57680;54.292;18.598;2023-08-01T04:43:02;8.47;;;3.70;;
70270;SDS011;57680;54.292;18.598;2023-08-01T04:45:27;9.50;;;4.00;;
70270;SDS011;57680;54.292;18.598;2023-08-01T04:47:53;9.90;;;3.80;;
70270;SDS011;57680;54.292;18.598;2023-08-01T04:50:18;9.70;;;3.60;;
70270;SDS011;57680;54.292;18.598;2023-08-01T04:52:44;9.30;;;4.00;;
70270;SDS011;57680;54.292;18.598;2023-08-01T04:55:09;10.37;;;4.60;;
70270;SDS011;57680;54.292;18.598;2023-08-01T04:57:34;8.97;;;4.20;;
70270;SDS011;57680;54.292;18.598;2023-08-01T05:00:00;8.30;;;3.83;;
70270;SDS011;57680;54.292;18.598;2023-08-01T05:02:25;9.17;;;4.20;;
70270;SDS011;57680;54.292;18.598;2023-08-01T05:04:51;9.03;;;3.83;;
70270;SDS011;57680;54.292;18.598;2023-08-01T05:07:16;8.20;;;4.00;;
70270;SDS011;57680;54.292;18.598;2023-08-01T05:09:42;8.85;;;4.05;;
70270;SDS011;57680;54.292;18.598;2023-08-01T05:12:07;10.17;;;4.70;;
70270;SDS011;57680;54.292;18.598;2023-08-01T05:14:32;9.60;;;4.53;;
70270;SDS011;57680;54.292;18.598;2023-08-01T05:17:01;8.20;;;4.27;;
70270;SDS011;57680;54.292;18.598;2023-08-01T05:19:26;10.05;;;4.50;;
70270;SDS011;57680;54.292;18.598;2023-08-01T05:21:52;9.70;;;4.37;;
70270;SDS011;57680;54.292;18.598;2023-08-01T05:24:17;12.60;;;4.50;;
70270;SDS011;57680;54.292;18.598;2023-08-01T05:26:42;10.25;;;4.85;;
70270;SDS011;57680;54.292;18.598;2023-08-01T05:29:08;9.03;;;4.27;;
70270;SDS011;57680;54.292;18.598;2023-08-01T05:31:36;10.13;;;4.47;;
70270;SDS011;57680;54.292;18.598;2023-08-01T05:34:01;10.77;;;4.40;;
70270;SDS011;57680;54.292;18.598;2023-08-01T05:36:27;9.10;;;4.50;;
70270;SDS011;57680;54.292;18.598;2023-08-01T05:38:52;9.37;;;4.17;;
70270;SDS011;57680;54.292;18.598;2023-08-01T05:41:17;9.33;;;4.37;;
70270;SDS011;57680;54.292;18.598;2023-08-01T05:43:43;9.83;;;4.27;;
70270;SDS011;57680;54.292;18.598;2023-08-01T05:46:08;9.43;;;4.40;;
70270;SDS011;57680;54.292;18.598;2023-08-01T05:48:34;10.80;;;4.72;;
70270;SDS011;57680;54.292;18.598;2023-08-01T05:50:59;9.37;;;4.50;;
70270;SDS011;57680;54.292;18.598;2023-08-01T05:53:24;10.43;;;4.60;;
70270;SDS011;57680;54.292;18.598;2023-08-01T05:55:50;9.63;;;4.60;;
70270;SDS011;57680;54.292;18.598;2023-08-01T05:58:15;11.93;;;4.70;;
70270;SDS011;57680;54.292;18.598;2023-08-01T06:00:41;10.27;;;4.80;;
70270;SDS011;57680;54.292;18.598;2023-08-01T06:03:06;10.37;;;4.87;;
70270;SDS011;57680;54.292;18.598;2023-08-01T06:05:31;10.40;;;4.90;;
70270;SDS011;57680;54.292;18.598;2023-08-01T06:07:57;8.73;;;4.37;;
70270;SDS011;57680;54.292;18.598;2023-08-01T06:10:22;9.87;;;4.70;;
70270;SDS011;57680;54.292;18.598;2023-08-01T06:12:47;11.68;;;4.40;;
70270;SDS011;57680;54.292;18.598;2023-08-01T06:15:13;10.00;;;4.70;;
70270;SDS011;57680;54.292;18.598;2023-08-01T06:17:38;8.57;;;4.40;;
70270;SDS011;57680;54.292;18.598;2023-08-01T06:20:03;10.73;;;4.40;;
70270;SDS011;57680;54.292;18.598;2023-08-01T06:22:29;10.13;;;4.65;;
70270;SDS011;57680;54.292;18.598;2023-08-01T06:24:54;8.40;;;4.53;;
70270;SDS011;57680;54.292;18.598;2023-08-01T06:27:20;10.63;;;5.00;;
70270;SDS011;57680;54.292;18.598;2023-08-01T06:29:45;10.57;;;4.33;;
70270;SDS011;57680;54.292;18.598;2023-08-01T06:32:11;9.83;;;4.63;;
70270;SDS011;57680;54.292;18.598;2023-08-01T06:34:36;12.35;;;5.53;;
70270;SDS011;57680;54.292;18.598;2023-08-01T06:37:02;9.20;;;4.83;;
70270;SDS011;57680;54.292;18.598;2023-08-01T06:39:27;11.53;;;5.03;;
70270;SDS011;57680;54.292;18.598;2023-08-01T06:41:52;10.50;;;4.43;;
70270;SDS011;57680;54.292;18.598;2023-08-01T06:44:18;10.40;;;4.55;;
70270;SDS011;57680;54.292;18.598;2023-08-01T06:46:43;11.80;;;5.23;;
70270;SDS011;57680;54.292;18.598;2023-08-01T06:49:09;9.10;;;4.77;;
70270;SDS011;57680;54.292;18.598;2023-08-01T06:51:34;11.33;;;4.40;;
70270;SDS011;57680;54.292;18.598;2023-08-01T06:53:59;10.03;;;4.60;;
70270;SDS011;57680;54.292;18.598;2023-08-01T06:56:24;12.07;;;5.00;;
70270;SDS011;57680;54.292;18.598;2023-08-01T06:58:50;11.70;;;5.23;;
70270;SDS011;57680;54.292;18.598;2023-08-01T07:01:15;11.05;;;4.95;;
70270;SDS011;57680;54.292;18.598;2023-08-01T07:03:41;9.93;;;5.07;;
70270;SDS011;57680;54.292;18.598;2023-08-01T07:06:06;10.40;;;4.60;;
70270;SDS011;57680;54.292;18.598;2023-08-01T07:08:31;11.97;;;5.30;;
70270;SDS011;57680;54.292;18.598;2023-08-01T07:10:57;12.37;;;5.30;;
70270;SDS011;57680;54.292;18.598;2023-08-01T07:13:23;11.40;;;5.60;;
70270;SDS011;57680;54.292;18.598;2023-08-01T07:15:48;10.93;;;5.70;;
70270;SDS011;57680;54.292;18.598;2023-08-01T07:18:13;13.00;;;6.10;;
70270;SDS011;57680;54.292;18.598;2023-08-01T07:20:39;12.53;;;5.80;;
70270;SDS011;57680;54.292;18.598;2023-08-01T07:23:04;12.83;;;6.57;;
70270;SDS011;57680;54.292;18.598;2023-08-01T07:25:29;13.13;;;5.68;;
70270;SDS011;57680;54.292;18.598;2023-08-01T07:27:55;11.60;;;6.07;;
70270;SDS011;57680;54.292;18.598;2023-08-01T07:30:20;14.27;;;6.80;;
70270;SDS011;57680;54.292;18.598;2023-08-01T07:32:46;12.83;;;6.70;;
70270;SDS011;57680;54.292;18.598;2023-08-01T07:35:11;14.13;;;6.70;;
70270;SDS011;57680;54.292;18.598;2023-08-01T07:37:36;13.17;;;6.83;;
70270;SDS011;57680;54.292;18.598;2023-08-01T07:40:02;15.13;;;7.18;;
70270;SDS011;57680;54.292;18.598;2023-08-01T07:42:27;12.13;;;6.67;;
70270;SDS011;57680;54.292;18.598;2023-08-01T07:44:52;13.07;;;6.73;;
70270;SDS011;57680;54.292;18.598;2023-08-01T07:47:18;13.27;;;6.43;;
70270;SDS011;57680;54.292;18.598;2023-08-01T07:49:43;14.17;;;6.80;;
70270;SDS011;57680;54.292;18.598;2023-08-01T07:52:09;12.43;;;6.22;;
70270;SDS011;57680;54.292;18.598;2023-08-01T07:54:34;11.80;;;5.73;;
70270;SDS011;57680;54.292;18.598;2023-08-01T07:57:00;11.33;;;6.27;;
70270;SDS011;57680;54.292;18.598;2023-08-01T07:59:25;11.45;;;6.35;;
70270;SDS011;57680;54.292;18.598;2023-08-01T08:01:51;12.53;;;6.30;;
70270;SDS011;57680;54.292;18.598;2023-08-01T08:04:16;11.43;;;6.10;;
70270;SDS011;57680;54.292;18.598;2023-08-01T08:06:41;13.83;;;7.00;;
70270;SDS011;57680;54.292;18.598;2023-08-01T08:09:07;13.33;;;6.57;;
70270;SDS011;57680;54.292;18.598;2023-08-01T08:11:32;11.52;;;6.25;;
70270;SDS011;57680;54.292;18.598;2023-08-01T08:13:58;12.67;;;6.50;;
70270;SDS011;57680;54.292;18.598;2023-08-01T08:16:23;11.13;;;5.97;;
70270;SDS011;57680;54.292;18.598;2023-08-01T08:18:48;12.87;;;6.27;;
70270;SDS011;57680;54.292;18.598;2023-08-01T08:21:14;13.03;;;6.23;;
70270;SDS011;57680;54.292;18.598;2023-08-01T08:23:39;11.60;;;6.30;;
70270;SDS011;57680;54.292;18.598;2023-08-01T08:26:05;12.40;;;6.23;;
70270;SDS011;57680;54.292;18.598;2023-08-01T08:28:31;13.73;;;6.80;;
70270;SDS011;57680;54.292;18.598;2023-08-01T08:30:57;11.90;;;6.38;;
70270;SDS011;57680;54.292;18.598;2023-08-01T08:33:22;12.77;;;6.70;;
70270;SDS011;57680;54.292;18.598;2023-08-01T08:35:48;13.07;;;6.63;;
70270;SDS011;57680;54.292;18.598;2023-08-01T08:38:14;13.33;;;6.90;;
70270;SDS011;57680;54.292;18.598;2023-08-01T08:40:40;11.73;;;6.60;;
70270;SDS011;57680;54.292;18.598;2023-08-01T08:43:08;14.07;;;6.33;;
70270;SDS011;57680;54.292;18.598;2023-08-01T08:45:35;13.73;;;6.70;;
70270;SDS011;57680;54.292;18.598;2023-08-01T08:48:01;14.52;;;5.90;;
70270;SDS011;57680;54.292;18.598;2023-08-01T08:50:32;11.60;;;6.30;;
70270;SDS011;57680;54.292;18.598;2023-08-01T08:52:59;12.00;;;6.00;;
70270;SDS011;57680;54.292;18.598;2023-08-01T08:55:25;11.73;;;6.57;;
70270;SDS011;57680;54.292;18.598;2023-08-01T08:57:51;11.07;;;5.90;;
70270;SDS011;57680;54.292;18.598;2023-08-01T09:00:17;10.48;;;6.07;;
70270;SDS011;57680;54.292;18.598;2023-08-01T09:02:42;12.47;;;6.17;;
70270;SDS011;57680;54.292;18.598;2023-08-01T09:05:08;13.63;;;6.45;;
70270;SDS011;57680;54.292;18.598;2023-08-01T09:07:33;10.87;;;6.50;;
70270;SDS011;57680;54.292;18.598;2023-08-01T09:10:03;10.30;;;5.93;;
70270;SDS011;57680;54.292;18.598;2023-08-01T09:12:29;9.75;;;5.70;;
70270;SDS011;57680;54.292;18.598;2023-08-01T09:14:59;10.02;;;5.80;;
70270;SDS011;57680;54.292;18.598;2023-08-01T09:17:24;8.10;;;4.90;;
70270;SDS011;57680;54.292;18.598;2023-08-01T09:19:54;9.10;;;5.20;;
70270;SDS011;57680;54.292;18.598;2023-08-01T09:22:20;10.60;;;5.00;;
70270;SDS011;57680;54.292;18.598;2023-08-01T09:24:52;9.87;;;5.03;;
70270;SDS011;57680;54.292;18.598;2023-08-01T09:27:18;9.02;;;5.03;;
70270;SDS011;57680;54.292;18.598;2023-08-01T09:29:45;9.70;;;5.45;;
70270;SDS011;57680;54.292;18.598;2023-08-01T09:32:11;10.13;;;4.83;;
70270;SDS011;57680;54.292;18.598;2023-08-01T09:34:37;13.00;;;5.40;;
70270;SDS011;57680;54.292;18.598;2023-08-01T09:37:02;9.00;;;4.70;;
70270;SDS011;57680;54.292;18.598;2023-08-01T09:39:28;7.93;;;4.70;;
70270;SDS011;57680;54.292;18.598;2023-08-01T09:44:22;10.05;;;5.72;;
70270;SDS011;57680;54.292;18.598;2023-08-01T09:47:01;11.87;;;5.60;;
70270;SDS011;57680;54.292;18.598;2023-08-01T09:49:28;10.85;;;5.75;;
70270;SDS011;57680;54.292;18.598;2023-08-01T09:51:54;9.52;;;5.40;;
70270;SDS011;57680;54.292;18.598;2023-08-01T09:54:20;9.77;;;5.07;;
70270;SDS011;57680;54.292;18.598;2023-08-01T09:56:46;9.60;;;5.10;;
70270;SDS011;57680;54.292;18.598;2023-08-01T09:59:13;10.77;;;4.95;;
70270;SDS011;57680;54.292;18.598;2023-08-01T10:01:43;12.07;;;6.68;;
70270;SDS011;57680;54.292;18.598;2023-08-01T10:04:09;11.15;;;5.63;;
70270;SDS011;57680;54.292;18.598;2023-08-01T10:06:37;12.07;;;5.80;;
70270;SDS011;57680;54.292;18.598;2023-08-01T10:09:03;12.23;;;5.73;;
70270;SDS011;57680;54.292;18.598;2023-08-01T10:11:30;10.82;;;6.00;;
70270;SDS011;57680;54.292;18.598;2023-08-01T10:13:58;10.93;;;6.45;;
70270;SDS011;57680;54.292;18.598;2023-08-01T10:16:25;10.70;;;5.82;;
70270;SDS011;57680;54.292;18.598;2023-08-01T10:18:51;10.55;;;6.05;;
70270;SDS011;57680;54.292;18.598;2023-08-01T10:21:16;10.80;;;6.30;;
70270;SDS011;57680;54.292;18.598;2023-08-01T10:23:43;11.02;;;6.25;;
70270;SDS011;57680;54.292;18.598;2023-08-01T10:26:10;10.93;;;6.25;;
70270;SDS011;57680;54.292;18.598;2023-08-01T10:28:37;12.27;;;6.10;;
70270;SDS011;57680;54.292;18.598;2023-08-01T10:31:10;10.35;;;5.63;;
70270;SDS011;57680;54.292;18.598;2023-08-01T10:33:40;10.50;;;6.00;;
70270;SDS011;57680;54.292;18.598;2023-08-01T10:36:17;10.50;;;5.85;;
70270;SDS011;57680;54.292;18.598;2023-08-01T10:38:51;9.93;;;5.50;;
70270;SDS011;57680;54.292;18.598;2023-08-01T10:41:21;9.70;;;5.40;;
70270;SDS011;57680;54.292;18.598;2023-08-01T10:43:50;8.63;;;5.50;;
70270;SDS011;57680;54.292;18.598;2023-08-01T10:46:15;10.97;;;6.00;;
70270;SDS011;57680;54.292;18.598;2023-08-01T10:48:52;11.20;;;6.43;;
70270;SDS011;57680;54.292;18.598;2023-08-01T10:51:18;10.80;;;5.90;;
70270;SDS011;57680;54.292;18.598;2023-08-01T10:53:44;11.07;;;6.05;;
70270;SDS011;57680;54.292;18.598;2023-08-01T10:56:16;12.53;;;6.13;;
70270;SDS011;57680;54.292;18.598;2023-08-01T10:58:42;11.75;;;6.32;;
70270;SDS011;57680;54.292;18.598;2023-08-01T11:01:08;10.80;;;5.97;;
70270;SDS011;57680;54.292;18.598;2023-08-01T11:03:37;9.87;;;5.83;;
70270;SDS011;57680;54.292;18.598;2023-08-01T11:06:03;11.18;;;5.80;;
70270;SDS011;57680;54.292;18.598;2023-08-01T11:08:35;9.87;;;5.77;;
70270;SDS011;57680;54.292;18.598;2023-08-01T11:11:10;9.88;;;5.28;;
70270;SDS011;57680;54.292;18.598;2023-08-01T11:13:37;10.35;;;5.60;;
70270;SDS011;57680;54.292;18.598;2023-08-01T11:16:03;9.53;;;5.70;;
70270;SDS011;57680;54.292;18.598;2023-08-01T11:18:29;9.57;;;5.75;;
70270;SDS011;57680;54.292;18.598;2023-08-01T11:20:54;10.77;;;5.93;;
70270;SDS011;57680;54.292;18.598;2023-08-01T11:23:26;11.40;;;5.60;;
70270;SDS011;57680;54.292;18.598;2023-08-01T11:25:52;10.60;;;5.47;;
70270;SDS011;57680;54.292;18.598;2023-08-01T11:28:18;12.57;;;6.07;;
70270;SDS011;57680;54.292;18.598;2023-08-01T11:30:43;10.47;;;6.10;;
70270;SDS011;57680;54.292;18.598;2023-08-01T11:33:24;12.43;;;6.75;;
70270;SDS011;57680;54.292;18.598;2023-08-01T11:35:56;11.25;;;6.03;;
70270;SDS011;57680;54.292;18.598;2023-08-01T11:38:22;11.00;;;6.03;;
70270;SDS011;57680;54.292;18.598;2023-08-01T11:40:48;11.70;;;6.30;;
70270;SDS011;57680;54.292;18.598;2023-08-01T11:43:15;11.30;;;6.65;;
70270;SDS011;57680;54.292;18.598;2023-08-01T11:48:15;12.20;;;6.80;;
70270;SDS011;57680;54.292;18.598;2023-08-01T11:50:41;13.63;;;7.57;;
70270;SDS011;57680;54.292;18.598;2023-08-01T11:53:16;13.63;;;7.15;;
70270;SDS011;57680;54.292;18.598;2023-08-01T11:55:43;13.73;;;7.60;;
70270;SDS011;57680;54.292;18.598;2023-08-01T11:58:08;13.57;;;7.77;;
70270;SDS011;57680;54.292;18.598;2023-08-01T12:00:34;14.77;;;8.10;;
70270;SDS011;57680;54.292;18.598;2023-08-01T12:05:34;14.13;;;7.70;;
70270;SDS011;57680;54.292;18.598;2023-08-01T12:08:11;14.50;;;8.40;;
70270;SDS011;57680;54.292;18.598;2023-08-01T12:10:38;14.23;;;8.30;;
70270;SDS011;57680;54.292;18.598;2023-08-01T12:13:29;14.07;;;8.23;;
70270;SDS011;57680;54.292;18.598;2023-08-01T12:15:54;13.93;;;8.18;;
70270;SDS011;57680;54.292;18.598;2023-08-01T12:18:23;14.07;;;7.80;;
70270;SDS011;57680;54.292;18.598;2023-08-01T12:20:53;14.85;;;8.48;;
70270;SDS011;57680;54.292;18.598;2023-08-01T12:23:19;12.38;;;7.68;;
70270;SDS011;57680;54.292;18.598;2023-08-01T12:25:48;13.38;;;7.80;;
70270;SDS011;57680;54.292;18.598;2023-08-01T12:28:13;14.10;;;7.50;;
70270;SDS011;57680;54.292;18.598;2023-08-01T12:30:39;11.80;;;7.35;;
70270;SDS011;57680;54.292;18.598;2023-08-01T12:33:05;13.13;;;7.45;;
70270;SDS011;57680;54.292;18.598;2023-08-01T12:35:31;12.97;;;7.30;;
70270;SDS011;57680;54.292;18.598;2023-08-01T12:37:56;12.33;;;6.90;;
70270;SDS011;57680;54.292;18.598;2023-08-01T12:40:21;13.73;;;7.90;;
70270;SDS011;57680;54.292;18.598;2023-08-01T12:42:47;16.13;;;8.20;;
70270;SDS011;57680;54.292;18.598;2023-08-01T12:45:12;13.27;;;7.33;;
70270;SDS011;57680;54.292;18.598;2023-08-01T12:47:38;12.77;;;7.57;;
70270;SDS011;57680;54.292;18.598;2023-08-01T12:50:03;14.40;;;7.67;;
70270;SDS011;57680;54.292;18.598;2023-08-01T12:52:29;13.77;;;7.43;;
70270;SDS011;57680;54.292;18.598;2023-08-01T12:54:55;12.60;;;7.10;;
70270;SDS011;57680;54.292;18.598;2023-08-01T12:57:20;12.00;;;6.85;;
70270;SDS011;57680;54.292;18.598;2023-08-01T12:59:45;13.60;;;7.07;;
70270;SDS011;57680;54.292;18.598;2023-08-01T13:02:12;12.23;;;7.50;;
70270;SDS011;57680;54.292;18.598;2023-08-01T13:04:38;9.93;;;6.82;;
70270;SDS011;57680;54.292;18.598;2023-08-01T13:07:03;11.80;;;6.90;;
70270;SDS011;57680;54.292;18.598;2023-08-01T13:09:29;13.63;;;7.67;;
70270;SDS011;57680;54.292;18.598;2023-08-01T13:11:54;13.57;;;8.63;;
70270;SDS011;57680;54.292;18.598;2023-08-01T13:14:20;14.20;;;7.87;;
70270;SDS011;57680;54.292;18.598;2023-08-01T13:16:45;12.30;;;7.70;;
70270;SDS011;57680;54.292;18.598;2023-08-01T13:19:13;14.10;;;7.77;;
70270;SDS011;57680;54.292;18.598;2023-08-01T13:21:39;12.48;;;7.30;;
70270;SDS011;57680;54.292;18.598;2023-08-01T13:24:04;16.33;;;7.53;;
70270;SDS011;57680;54.292;18.598;2023-08-01T13:26:30;13.30;;;7.60;;
70270;SDS011;57680;54.292;18.598;2023-08-01T13:28:56;12.43;;;7.53;;
70270;SDS011;57680;54.292;18.598;2023-08-01T13:31:21;14.47;;;7.83;;
70270;SDS011;57680;54.292;18.598;2023-08-01T13:33:47;11.77;;;7.15;;
70270;SDS011;57680;54.292;18.598;2023-08-01T13:36:13;13.77;;;7.77;;
70270;SDS011;57680;54.292;18.598;2023-08-01T13:38:38;13.05;;;7.53;;
70270;SDS011;57680;54.292;18.598;2023-08-01T13:41:03;14.13;;;7.10;;
70270;SDS011;57680;54.292;18.598;2023-08-01T13:43:29;12.20;;;6.77;;
70270;SDS011;57680;54.292;18.598;2023-08-01T13:45:54;12.57;;;6.20;;
70270;SDS011;57680;54.292;18.598;2023-08-01T13:48:19;12.50;;;6.28;;
70270;SDS011;57680;54.292;18.598;2023-08-01T13:50:45;11.50;;;6.10;;
70270;SDS011;57680;54.292;18.598;2023-08-01T13:53:10;11.10;;;5.80;;
70270;SDS011;57680;54.292;18.598;2023-08-01T13:55:36;11.27;;;6.37;;
70270;SDS011;57680;54.292;18.598;2023-08-01T13:58:01;10.70;;;6.30;;
70270;SDS011;57680;54.292;18.598;2023-08-01T14:00:26;10.63;;;6.10;;
70270;SDS011;57680;54.292;18.598;2023-08-01T14:02:52;10.75;;;5.85;;
70270;SDS011;57680;54.292;18.598;2023-08-01T14:05:18;9.90;;;5.70;;
70270;SDS011;57680;54.292;18.598;2023-08-01T14:07:43;9.63;;;5.53;;
70270;SDS011;57680;54.292;18.598;2023-08-01T14:10:09;10.77;;;5.80;;
70270;SDS011;57680;54.292;18.598;2023-08-01T14:12:34;9.27;;;5.40;;
70270;SDS011;57680;54.292;18.598;2023-08-01T14:14:59;9.73;;;5.60;;
70270;SDS011;57680;54.292;18.598;2023-08-01T14:17:25;11.40;;;6.70;;
70270;SDS011;57680;54.292;18.598;2023-08-01T14:19:50;10.07;;;6.65;;
70270;SDS011;57680;54.292;18.598;2023-08-01T14:22:15;11.30;;;7.10;;
70270;SDS011;57680;54.292;18.598;2023-08-01T14:24:41;13.07;;;6.80;;
70270;SDS011;57680;54.292;18.598;2023-08-01T14:27:06;12.83;;;6.97;;
70270;SDS011;57680;54.292;18.598;2023-08-01T14:29:33;12.52;;;7.00;;